Time;durP1;ratioP1;P1;durP2;ratioP2;P2;SDS_P1;SDS_P2;PMS_P1;PMS_P2;Temp;Humidity;BMP_temperature;BMP_pressure;BME280_temperature;BME280_humidity;BME280_pressure;Samples;Min_cycle;Max_cycle;Signal;HPM_P1;HPM_P2
2022/06/20 00:01:25;;;;;;;21.93;20.10;;;26.30;24.90;;;;;;5073890;28;20429;-75
2022/06/20 00:04:15;;;;;;;21.23;19.63;;;26.20;24.50;;;;;;5074102;28;20515;-75
2022/06/20 00:10:47;;;;;;;20.97;19.63;;;26.20;24.80;;;;;;5091827;28;20385;-75
2022/06/20 00:20:22;;;;;;;22.47;20.67;;;26.10;25.60;;;;;;5092195;28;20412;-75
2022/06/20 00:22:48;;;;;;;23.53;21.80;;;26.10;25.60;;;;;;5073691;28;20421;-76
2022/06/20 00:25:16;;;;;;;21.57;20.20;;;26.00;25.50;;;;;;5076576;28;20411;-75
2022/06/20 00:31:04;;;;;;;22.67;20.97;;;25.90;26.00;;;;;;5095171;28;20252;-75
2022/06/20 00:33:29;;;;;;;21.10;19.73;;;25.80;26.60;;;;;;5076881;28;20516;-75
2022/06/20 00:35:56;;;;;;;21.27;20.07;;;25.70;26.40;;;;;;5077236;28;20496;-75
2022/06/20 00:38:22;;;;;;;22.70;20.87;;;25.70;26.50;;;;;;5096437;28;20167;-75
2022/06/20 00:40:51;;;;;;;21.27;19.77;;;25.70;26.60;;;;;;5078326;28;20447;-74
2022/06/20 00:43:26;;;;;;;22.10;20.50;;;25.70;26.90;;;;;;5080941;28;20413;-76
2022/06/20 00:46:25;;;;;;;23.30;21.63;;;25.60;27.20;;;;;;5080143;28;20946;-75
2022/06/20 00:49:06;;;;;;;23.07;21.30;;;25.60;27.10;;;;;;5077621;28;20422;-75
2022/06/20 00:51:35;;;;;;;22.60;20.90;;;25.70;27.30;;;;;;5078081;28;20525;-75
2022/06/20 00:54:23;;;;;;;23.47;21.73;;;25.70;27.10;;;;;;5077406;28;20413;-76
2022/06/20 00:57:03;;;;;;;23.10;21.70;;;25.70;27.20;;;;;;5061262;28;20453;-75
2022/06/20 00:59:36;;;;;;;21.93;20.10;;;25.70;27.50;;;;;;5077342;28;20404;-75
2022/06/20 01:02:06;;;;;;;23.83;21.73;;;25.70;27.90;;;;;;5077534;28;20417;-75
2022/06/20 01:04:47;;;;;;;24.10;22.03;;;25.70;28.20;;;;;;5076973;28;20405;-75
2022/06/20 01:07:19;;;;;;;30.97;24.10;;;25.70;29.60;;;;;;5076673;28;20417;-75
2022/06/20 01:09:49;;;;;;;31.97;27.80;;;25.60;37.90;;;;;;5076892;28;20412;-75
2022/06/20 01:12:20;;;;;;;26.33;24.20;;;25.30;43.10;;;;;;5076109;28;20460;-75
2022/06/20 01:14:46;;;;;;;27.00;25.20;;;24.90;45.10;;;;;;5076423;28;20424;-75
2022/06/20 01:17:30;;;;;;;28.77;26.40;;;24.60;48.00;;;;;;5076675;28;20413;-75
2022/06/20 01:20:47;;;;;;;28.67;26.40;;;24.40;51.60;;;;;;5077030;28;20175;-75
2022/06/20 01:23:30;;;;;;;28.13;26.20;;;24.10;52.40;;;;;;5077004;28;20456;-75
2022/06/20 01:26:05;;;;;;;29.27;27.27;;;24.00;50.60;;;;;;5076697;28;20417;-76
2022/06/20 01:28:37;;;;;;;28.63;26.13;;;24.00;51.50;;;;;;5076049;28;20779;-75
2022/06/20 01:34:28;;;;;;;27.73;25.53;;;24.00;51.60;;;;;;5094686;28;20825;-75
2022/06/20 01:44:06;;;;;;;26.47;24.87;;;23.80;51.30;;;;;;5094445;28;20396;-75
2022/06/20 01:46:34;;;;;;;26.60;24.80;;;23.70;53.20;;;;;;5076178;28;20470;-75
2022/06/20 01:49:21;;;;;;;26.43;24.80;;;23.60;54.00;;;;;;5075743;28;20405;-75
2022/06/20 01:52:15;;;;;;;25.70;23.87;;;23.50;55.20;;;;;;5076296;28;20463;-75
2022/06/20 01:54:50;;;;;;;26.10;24.37;;;23.50;56.40;;;;;;5054718;28;20417;-76
2022/06/20 01:57:18;;;;;;;26.67;24.73;;;23.40;54.80;;;;;;5075663;28;20423;-75
2022/06/20 02:00:21;;;;;;;25.13;23.00;;;23.40;56.20;;;;;;5076173;28;20412;-75
2022/06/20 02:02:54;;;;;;;24.20;22.37;;;23.30;56.20;;;;;;4975695;28;20464;-75
2022/06/20 02:18:18;;;;;;;24.50;22.77;;;23.20;59.00;;;;;;5011353;28;20464;-76
2022/06/20 02:20:48;;;;;;;24.90;23.10;;;23.20;58.30;;;;;;5011492;28;20433;-76
2022/06/20 02:23:26;;;;;;;24.97;22.87;;;23.20;59.20;;;;;;5046246;28;20853;-76
2022/06/20 02:25:54;;;;;;;23.47;21.67;;;23.20;59.70;;;;;;5075405;28;20421;-74
2022/06/20 02:28:27;;;;;;;25.37;23.87;;;23.20;60.50;;;;;;5074864;28;20826;-75
2022/06/20 02:30:53;;;;;;;25.50;23.40;;;23.20;59.10;;;;;;5075280;28;20464;-77
2022/06/20 02:33:27;;;;;;;26.20;24.07;;;23.20;59.70;;;;;;5075344;28;20467;-74
2022/06/20 02:35:54;;;;;;;28.50;26.20;;;23.20;59.50;;;;;;5075540;28;20170;-74
2022/06/20 02:38:21;;;;;;;27.17;25.40;;;23.20;58.90;;;;;;5074902;28;20412;-74
2022/06/20 02:40:48;;;;;;;25.33;23.37;;;23.20;57.70;;;;;;5074707;28;20428;-74
2022/06/20 02:43:22;;;;;;;27.50;25.50;;;23.10;58.50;;;;;;5075144;28;20409;-75
2022/06/20 02:45:49;;;;;;;24.40;22.17;;;23.10;60.90;;;;;;5075598;28;20425;-75
2022/06/20 02:48:16;;;;;;;26.30;24.30;;;23.10;59.10;;;;;;5074197;28;20441;-74
2022/06/20 02:50:54;;;;;;;27.20;24.50;;;23.10;61.10;;;;;;5075404;28;20473;-76
2022/06/20 02:53:41;;;;;;;23.03;21.13;;;23.10;63.00;;;;;;5075221;28;20413;-74
2022/06/20 03:02:58;;;;;;;22.23;20.53;;;23.20;63.30;;;;;;5093163;28;20404;-75
2022/06/20 03:09:02;;;;;;;26.03;23.60;;;23.20;58.60;;;;;;5093498;28;20404;-75
2022/06/20 03:11:56;;;;;;;25.30;23.40;;;23.30;53.70;;;;;;5075038;28;20862;-75
2022/06/20 03:14:29;;;;;;;25.47;23.40;;;23.30;56.00;;;;;;5074908;28;20411;-75
2022/06/20 03:16:57;;;;;;;25.00;23.20;;;23.30;56.30;;;;;;5074928;28;20413;-75
2022/06/20 03:19:26;;;;;;;23.60;21.90;;;23.30;55.90;;;;;;5074865;28;20407;-74
2022/06/20 03:32:35;;;;;;;22.37;21.07;;;23.40;53.40;;;;;;5092893;28;20463;-74
2022/06/20 03:38:25;;;;;;;25.87;24.47;;;23.40;53.70;;;;;;5091959;28;20408;-75
2022/06/20 03:40:53;;;;;;;27.40;25.27;;;23.50;44.50;;;;;;5085756;22;20492;-75
2022/06/20 03:57:06;;;;;;;46.37;43.80;;;22.20;60.00;;;;;;5092356;28;20468;-77
2022/06/20 03:59:43;;;;;;;50.37;47.30;;;21.70;63.00;;;;;;5075825;28;20424;-77
2022/06/20 04:02:14;;;;;;;47.83;44.83;;;21.40;65.90;;;;;;5078144;28;20412;-77
2022/06/20 04:05:10;;;;;;;49.30;45.87;;;21.20;67.90;;;;;;5078100;28;20469;-77
2022/06/20 04:07:48;;;;;;;44.40;41.60;;;21.00;68.70;;;;;;5078272;28;20416;-76
2022/06/20 04:13:31;;;;;;;38.50;36.17;;;20.80;70.80;;;;;;5096056;28;20412;-76
2022/06/20 04:16:00;;;;;;;44.85;41.55;;;20.70;72.90;;;;;;5076786;28;20409;-77
2022/06/20 04:22:17;;;;;;;41.77;39.10;;;20.70;69.80;;;;;;5003829;28;20431;-76
2022/06/20 04:24:54;;;;;;;45.50;42.40;;;20.60;72.10;;;;;;5098000;28;20432;-77
2022/06/20 04:31:31;;;;;;;42.50;39.40;;;20.50;70.20;;;;;;5095642;28;20481;-74
2022/06/20 04:37:27;;;;;;;39.37;36.83;;;20.50;78.80;;;;;;5096077;28;20385;-78
2022/06/20 04:43:58;;;;;;;33.40;31.07;;;20.60;77.20;;;;;;5095895;28;20810;-74
2022/06/20 04:47:02;;;;;;;30.87;28.93;;;20.60;80.30;;;;;;5076699;28;20425;-75
2022/06/20 04:49:27;;;;;;;30.57;28.30;;;20.60;82.30;;;;;;5077196;28;20428;-76
2022/06/20 04:51:53;;;;;;;32.00;29.87;;;20.60;76.90;;;;;;5076874;28;20460;-75
2022/06/20 04:54:21;;;;;;;34.20;32.00;;;20.70;74.10;;;;;;5076731;28;20185;-75
2022/06/20 04:56:51;;;;;;;34.10;32.10;;;20.60;73.70;;;;;;5076378;28;20175;-76
2022/06/20 04:59:21;;;;;;;35.23;32.93;;;20.50;76.90;;;;;;5076426;28;20419;-76
2022/06/20 05:01:48;;;;;;;34.80;32.47;;;20.50;73.60;;;;;;5076393;28;20500;-76
2022/06/20 05:04:28;;;;;;;34.43;31.80;;;20.50;73.80;;;;;;5076190;28;20420;-76
2022/06/20 05:06:57;;;;;;;34.40;32.33;;;20.50;73.60;;;;;;5076034;28;20547;-76
2022/06/20 05:09:25;;;;;;;35.03;32.87;;;20.40;68.60;;;;;;5075560;28;20460;-75
2022/06/20 05:12:00;;;;;;;34.77;32.40;;;20.50;71.80;;;;;;5075909;28;20524;-76
2022/06/20 05:15:05;;;;;;;33.50;31.47;;;20.50;71.20;;;;;;5076039;28;20424;-76
2022/06/20 05:17:33;;;;;;;30.37;28.30;;;20.60;74.30;;;;;;5075888;28;20451;-76
2022/06/20 05:20:27;;;;;;;35.73;32.80;;;20.70;77.60;;;;;;5076043;28;20553;-76
2022/06/20 05:23:18;;;;;;;31.90;30.00;;;20.70;68.90;;;;;;5075186;28;20420;-76
2022/06/20 05:25:44;;;;;;;33.13;30.80;;;20.70;73.30;;;;;;5076014;28;20436;-76
2022/06/20 05:28:18;;;;;;;30.17;28.00;;;20.70;74.00;;;;;;5075642;28;20412;-76
2022/06/20 05:30:45;;;;;;;29.87;28.17;;;20.70;73.90;;;;;;5075751;28;20206;-76
2022/06/20 05:33:34;;;;;;;32.33;30.17;;;20.70;71.40;;;;;;5075774;28;20428;-75
2022/06/20 05:36:06;;;;;;;31.70;29.63;;;20.70;71.40;;;;;;5075216;28;20409;-76
2022/06/20 05:38:52;;;;;;;34.03;31.87;;;20.70;72.60;;;;;;5075664;28;20424;-76
2022/06/20 05:41:18;;;;;;;36.30;33.90;;;20.80;70.50;;;;;;5069622;28;20793;-77
2022/06/20 05:43:44;;;;;;;32.57;30.33;;;20.80;69.40;;;;;;5071940;28;20420;-77
2022/06/20 05:46:40;;;;;;;31.07;28.87;;;20.80;71.90;;;;;;5071195;28;20417;-77
2022/06/20 05:49:11;;;;;;;29.13;27.30;;;20.80;71.30;;;;;;5034533;28;20187;-77
2022/06/20 05:51:41;;;;;;;29.83;27.50;;;20.80;70.00;;;;;;5071815;28;20460;-77
2022/06/20 06:14:36;;;;;;;28.87;26.83;;;21.10;63.30;;;;;;4991444;28;20428;-76
2022/06/20 06:33:58;;;;;;;29.03;26.87;;;21.20;66.10;;;;;;5074069;28;20374;-75
2022/06/20 06:36:44;;;;;;;31.00;28.60;;;21.20;63.30;;;;;;5055752;28;20425;-78
2022/06/20 06:39:18;;;;;;;28.33;26.37;;;21.20;63.20;;;;;;5055312;28;20414;-79
2022/06/20 06:45:07;;;;;;;27.10;25.30;;;21.40;64.40;;;;;;5072716;28;20381;-77
2022/06/20 06:47:42;;;;;;;27.17;25.37;;;21.50;64.30;;;;;;5054641;28;20792;-79
2022/06/20 06:50:17;;;;;;;25.90;23.93;;;21.60;63.90;;;;;;5054370;28;20421;-80
2022/06/20 06:52:57;;;;;;;23.23;21.93;;;21.60;69.10;;;;;;5054467;28;20428;-82
2022/06/20 06:55:39;;;;;;;28.80;26.77;;;21.60;64.40;;;;;;5055355;28;20451;-80
2022/06/20 06:58:33;;;;;;;27.37;25.63;;;21.70;61.80;;;;;;5054372;28;20837;-79
2022/06/20 07:08:05;;;;;;;28.57;26.23;;;21.70;61.10;;;;;;5073667;28;20394;-78
2022/06/20 07:11:09;;;;;;;30.17;27.73;;;21.70;58.00;;;;;;5073246;28;20389;-80
2022/06/20 07:17:11;;;;;;;27.70;25.80;;;22.00;58.50;;;;;;5073271;28;20467;-82
2022/06/20 07:23:20;;;;;;;27.10;25.40;;;22.10;56.90;;;;;;5072330;28;20389;-80
2022/06/20 07:26:17;;;;;;;25.87;24.17;;;22.10;62.90;;;;;;5054293;28;20425;-80
2022/06/20 07:39:49;;;;;;;25.17;23.57;;;22.00;62.90;;;;;;5033694;28;21033;-81
2022/06/20 07:46:20;;;;;;;29.30;27.50;;;21.90;61.70;;;;;;5034403;28;20454;-80
2022/06/20 07:58:59;;;;;;;24.80;23.00;;;22.20;62.60;;;;;;5076105;28;20479;-81
2022/06/20 08:04:51;;;;;;;26.30;24.53;;;22.30;62.90;;;;;;5076632;28;20389;-81
2022/06/20 08:07:24;;;;;;;26.83;25.03;;;22.50;62.60;;;;;;5057332;28;20428;-81
2022/06/20 08:10:07;;;;;;;27.13;24.37;;;22.70;61.10;;;;;;5060101;28;20418;-81
2022/06/20 08:12:50;;;;;;;24.53;23.03;;;22.70;61.90;;;;;;5059380;28;20496;-81
2022/06/20 08:15:44;;;;;;;23.60;21.90;;;22.80;60.60;;;;;;5059396;28;20425;-82
2022/06/20 08:18:10;;;;;;;28.07;26.47;;;22.80;61.20;;;;;;5054760;28;20491;-81
2022/06/20 08:20:42;;;;;;;28.23;26.30;;;22.90;53.20;;;;;;5073955;28;20473;-81
2022/06/20 08:23:14;;;;;;;28.93;27.10;;;22.80;54.10;;;;;;5075310;28;20171;-81
2022/06/20 08:25:49;;;;;;;28.53;26.70;;;22.80;50.70;;;;;;5058196;28;20418;-82
2022/06/20 08:28:21;;;;;;;28.10;26.40;;;22.90;48.60;;;;;;5056762;28;20425;-82
2022/06/20 08:30:52;;;;;;;27.63;26.23;;;23.10;46.90;;;;;;5057836;28;20457;-82
2022/06/20 08:33:27;;;;;;;28.93;27.13;;;23.10;50.50;;;;;;5056963;28;20424;-82
2022/06/20 08:42:37;;;;;;;29.80;27.97;;;23.50;43.40;;;;;;5076649;28;20428;-81
2022/06/20 08:45:22;;;;;;;28.60;26.73;;;23.60;43.50;;;;;;5058778;28;20418;-80
2022/06/20 08:48:25;;;;;;;29.40;27.70;;;23.60;43.50;;;;;;5059305;28;20206;-80
2022/06/20 08:51:21;;;;;;;26.47;25.27;;;23.60;43.40;;;;;;5058882;28;20463;-80
2022/06/20 08:54:02;;;;;;;27.03;25.47;;;23.50;44.90;;;;;;5059098;28;20478;-81
2022/06/20 08:56:47;;;;;;;29.50;27.57;;;23.60;45.30;;;;;;5058073;28;20474;-80
2022/06/20 08:59:47;;;;;;;27.50;25.77;;;23.80;43.60;;;;;;5075115;28;20409;-80
2022/06/20 09:02:36;;;;;;;28.13;26.13;;;23.90;44.80;;;;;;5057633;28;20425;-81
2022/06/20 09:05:42;;;;;;;27.37;25.77;;;24.00;40.30;;;;;;5059212;28;20516;-81
2022/06/20 09:11:39;;;;;;;27.77;26.20;;;24.20;41.40;;;;;;5075463;28;20522;-82
2022/06/20 09:14:16;;;;;;;28.73;26.73;;;24.30;39.60;;;;;;5057672;28;20413;-80
2022/06/20 09:16:45;;;;;;;27.37;25.37;;;24.40;39.90;;;;;;5056922;28;20413;-80
2022/06/20 09:22:51;;;;;;;27.77;26.00;;;24.70;38.70;;;;;;5077610;28;20388;-80
2022/06/20 09:25:23;;;;;;;30.20;27.80;;;24.80;37.70;;;;;;5059045;28;20421;-82
2022/06/20 09:27:49;;;;;;;27.33;25.63;;;25.00;36.60;;;;;;5057636;28;20418;-80
2022/06/20 09:30:40;;;;;;;26.57;25.07;;;25.20;35.20;;;;;;5076511;28;20743;-77
2022/06/20 09:43:58;;;;;;;28.80;27.30;;;25.60;33.60;;;;;;5074674;28;20477;-77
2022/06/20 09:46:55;;;;;;;26.50;24.93;;;25.70;33.00;;;;;;5056923;28;20420;-78
2022/06/20 09:56:22;;;;;;;27.20;25.47;;;26.30;30.60;;;;;;5096069;28;20428;-76
2022/06/20 10:15:48;;;;;;;23.70;22.20;;;26.70;28.50;;;;;;5073242;28;20389;-80
2022/06/20 10:18:14;;;;;;;26.47;24.83;;;26.70;28.20;;;;;;5055157;28;20461;-80
2022/06/20 10:27:38;;;;;;;24.30;22.63;;;26.60;29.10;;;;;;5072584;28;20385;-78
2022/06/20 10:40:27;;;;;;;25.03;23.47;;;26.60;28.10;;;;;;5072179;28;20466;-76
2022/06/20 10:43:13;;;;;;;22.73;21.33;;;26.50;29.00;;;;;;5054336;28;20414;-77
2022/06/20 10:45:46;;;;;;;22.97;21.70;;;26.50;27.50;;;;;;5054649;28;20416;-77
2022/06/20 10:48:51;;;;;;;21.40;20.40;;;26.60;27.30;;;;;;5054090;28;20418;-77
2022/06/20 11:22:00;;;;;;;22.57;21.27;;;27.00;22.70;;;;;;5072075;28;20463;-77
2022/06/20 11:24:28;;;;;;;23.07;21.63;;;26.90;24.30;;;;;;5054370;28;20409;-77
2022/06/20 11:27:03;;;;;;;23.80;22.30;;;26.90;25.20;;;;;;5054078;28;20417;-77
2022/06/20 11:41:07;;;;;;;24.20;22.43;;;26.70;25.90;;;;;;5072288;28;20412;-77
2022/06/20 12:05:18;;;;;;;25.20;24.00;;;25.90;27.60;;;;;;5092019;28;20543;-77
2022/06/20 12:07:56;;;;;;;25.33;23.30;;;26.00;28.60;;;;;;5073386;28;20428;-77
2022/06/20 12:10:27;;;;;;;24.10;22.53;;;26.00;27.20;;;;;;5073510;28;20415;-77
2022/06/20 12:13:02;;;;;;;24.50;22.77;;;26.00;26.50;;;;;;5076482;28;20428;-79
2022/06/20 12:15:38;;;;;;;23.53;22.27;;;25.90;26.30;;;;;;5079473;28;20400;-80
2022/06/20 12:29:10;;;;;;;20.23;19.23;;;25.70;25.40;;;;;;5032949;28;20462;-78
2022/06/20 12:31:38;;;;;;;20.63;19.27;;;25.60;25.30;;;;;;5043883;28;20466;-76
2022/06/20 12:34:32;;;;;;;21.70;20.60;;;25.70;25.50;;;;;;5077096;28;20749;-76
2022/06/20 12:37:11;;;;;;;23.67;22.20;;;25.80;27.20;;;;;;5095650;28;20427;-76
2022/06/20 12:39:48;;;;;;;23.50;21.90;;;26.10;27.60;;;;;;5078731;28;20228;-77
2022/06/20 12:42:38;;;;;;;22.73;21.50;;;26.10;27.90;;;;;;5078493;28;20518;-76
2022/06/20 12:45:39;;;;;;;22.67;21.67;;;26.20;27.90;;;;;;5077560;28;20439;-76
2022/06/20 12:48:23;;;;;;;22.33;21.00;;;26.40;26.80;;;;;;5071449;28;20515;-76
2022/06/20 12:51:05;;;;;;;24.23;22.20;;;26.40;25.90;;;;;;5076903;28;20887;-76
2022/06/20 12:57:04;;;;;;;24.07;22.63;;;26.30;27.00;;;;;;5095716;28;20923;-76
2022/06/20 13:00:02;;;;;;;23.77;22.43;;;26.10;26.50;;;;;;5077595;28;20507;-76
2022/06/20 13:03:01;;;;;;;25.40;23.90;;;25.90;27.00;;;;;;4992534;28;20524;-77
2022/06/20 13:05:54;;;;;;;24.30;22.77;;;26.00;27.00;;;;;;5028696;28;20465;-75
2022/06/20 13:09:04;;;;;;;23.27;21.67;;;26.20;26.60;;;;;;5056457;28;20436;-76
2022/06/20 13:11:49;;;;;;;23.47;21.63;;;26.40;26.50;;;;;;5022013;28;20453;-76
2022/06/20 13:14:24;;;;;;;23.87;22.47;;;26.60;26.10;;;;;;5056013;28;20495;-76
2022/06/20 13:17:28;;;;;;;24.97;23.23;;;26.70;26.10;;;;;;5055786;28;20416;-76
2022/06/20 13:20:34;;;;;;;24.97;23.20;;;26.70;25.90;;;;;;5056266;28;20405;-76
2022/06/20 13:23:21;;;;;;;26.93;25.03;;;26.50;26.20;;;;;;5056485;28;20947;-76
2022/06/20 13:29:36;;;;;;;23.63;22.33;;;26.10;27.10;;;;;;5073367;28;20451;-76
2022/06/20 13:35:46;;;;;;;24.90;23.20;;;25.50;29.00;;;;;;5074845;28;20382;-74
2022/06/20 13:45:34;;;;;;;24.27;22.73;;;25.10;31.70;;;;;;5094024;28;20380;-76
2022/06/20 13:48:11;;;;;;;23.43;22.23;;;25.00;30.00;;;;;;5075234;28;20507;-76
2022/06/20 13:50:55;;;;;;;23.40;22.30;;;25.00;31.10;;;;;;5075528;28;20452;-76
2022/06/20 13:53:44;;;;;;;23.93;22.50;;;24.90;31.10;;;;;;5075392;28;20409;-76
2022/06/20 13:56:15;;;;;;;23.13;21.83;;;24.70;32.00;;;;;;5075234;28;20856;-76
2022/06/20 13:59:03;;;;;;;23.07;21.80;;;24.60;32.00;;;;;;5075315;28;20405;-76
2022/06/20 14:02:08;;;;;;;23.83;21.80;;;24.50;32.60;;;;;;5075300;28;20409;-77
2022/06/20 14:04:36;;;;;;;22.67;21.40;;;24.40;33.40;;;;;;5073648;28;20412;-76
2022/06/20 14:07:05;;;;;;;23.43;22.20;;;24.30;33.30;;;;;;5074559;28;20404;-76
2022/06/20 14:10:02;;;;;;;23.10;21.70;;;24.20;33.50;;;;;;5069698;28;21015;-77
2022/06/20 14:15:52;;;;;;;22.40;21.27;;;24.10;33.00;;;;;;5073128;28;20865;-76
2022/06/20 14:18:29;;;;;;;23.73;22.27;;;23.90;33.30;;;;;;5072790;28;20444;-76
2022/06/20 14:28:29;;;;;;;22.73;21.60;;;23.50;34.80;;;;;;5072702;28;20381;-76
2022/06/20 14:38:13;;;;;;;20.17;19.30;;;23.50;35.30;;;;;;5072311;28;20453;-76
2022/06/20 14:40:58;;;;;;;20.63;19.73;;;23.60;34.70;;;;;;5054249;28;20467;-76
2022/06/20 14:43:38;;;;;;;20.97;19.67;;;23.60;35.70;;;;;;5070425;28;20779;-77
2022/06/20 14:46:15;;;;;;;22.37;21.13;;;23.50;35.40;;;;;;5069960;28;20905;-77
2022/06/20 14:48:43;;;;;;;21.60;20.47;;;23.40;36.30;;;;;;5054254;28;20420;-77
2022/06/20 14:51:30;;;;;;;20.87;19.77;;;23.50;35.90;;;;;;5054159;28;20489;-77
2022/06/20 14:54:05;;;;;;;21.20;20.30;;;23.50;36.00;;;;;;5053936;28;20460;-78
2022/06/20 14:56:56;;;;;;;21.07;19.87;;;23.50;36.10;;;;;;5070617;28;20754;-77
2022/06/20 14:59:21;;;;;;;20.73;19.73;;;23.60;36.10;;;;;;5070388;28;20440;-77
2022/06/20 15:12:11;;;;;;;21.10;19.47;;;24.00;35.80;;;;;;5072000;28;20460;-76
2022/06/20 15:14:43;;;;;;;20.57;19.67;;;23.80;36.30;;;;;;5053766;28;20532;-76
2022/06/20 15:17:30;;;;;;;20.17;19.03;;;23.80;35.30;;;;;;5070336;28;20825;-76
2022/06/20 15:20:17;;;;;;;21.70;20.70;;;23.80;35.30;;;;;;5070646;28;20420;-75
2022/06/20 15:23:01;;;;;;;21.07;20.07;;;23.70;34.90;;;;;;5070812;28;20453;-75
2022/06/20 15:25:32;;;;;;;21.03;20.00;;;23.80;33.80;;;;;;5070908;28;20428;-76
2022/06/20 15:31:29;;;;;;;19.73;18.83;;;23.60;35.90;;;;;;5071738;28;20988;-77
2022/06/20 15:34:42;;;;;;;20.90;19.90;;;23.70;35.90;;;;;;5070576;28;20796;-77
2022/06/20 15:37:21;;;;;;;19.93;19.03;;;23.80;33.80;;;;;;5070997;28;20413;-77
2022/06/20 15:39:56;;;;;;;20.10;19.30;;;23.80;34.00;;;;;;5070885;28;20794;-77
2022/06/20 15:42:46;;;;;;;19.70;18.67;;;23.70;33.80;;;;;;5053904;28;20440;-77
2022/06/20 15:45:19;;;;;;;19.93;18.97;;;23.70;35.40;;;;;;5053372;28;20417;-78
2022/06/20 15:48:14;;;;;;;19.70;18.73;;;23.70;33.50;;;;;;5070607;28;20466;-77
2022/06/20 15:50:43;;;;;;;19.90;19.10;;;23.80;33.70;;;;;;5070207;28;20571;-77
2022/06/20 15:53:30;;;;;;;20.43;19.40;;;23.80;33.70;;;;;;5053677;28;20425;-77
2022/06/20 15:56:24;;;;;;;20.30;19.30;;;23.90;33.30;;;;;;5074491;28;20413;-78
2022/06/20 15:58:52;;;;;;;20.10;19.20;;;24.00;33.40;;;;;;5073773;28;21035;-77
2022/06/20 16:01:21;;;;;;;19.93;18.93;;;23.90;33.30;;;;;;5076267;28;20432;-76
2022/06/20 16:03:53;;;;;;;20.20;19.30;;;23.80;33.20;;;;;;5077154;28;20421;-77
2022/06/20 16:07:05;;;;;;;20.07;18.97;;;23.90;33.30;;;;;;5077226;28;21018;-78
2022/06/20 16:09:55;;;;;;;20.10;19.20;;;23.80;33.20;;;;;;5040463;28;20901;-78
2022/06/20 16:12:23;;;;;;;23.20;21.80;;;23.60;34.10;;;;;;5077512;28;20540;-78
2022/06/20 16:14:54;;;;;;;21.30;20.20;;;23.60;35.00;;;;;;5079397;28;20448;-79
2022/06/20 16:17:37;;;;;;;20.80;19.80;;;23.50;34.90;;;;;;5078201;28;20916;-76
2022/06/20 16:20:04;;;;;;;20.13;19.10;;;23.50;34.70;;;;;;5096195;28;20413;-77
2022/06/20 16:22:30;;;;;;;20.70;19.50;;;23.40;34.20;;;;;;5077831;28;20511;-79
2022/06/20 16:24:55;;;;;;;19.37;18.40;;;23.40;34.90;;;;;;5077804;28;20417;-76
2022/06/20 16:27:33;;;;;;;18.87;17.97;;;23.30;35.60;;;;;;5077817;28;20423;-76
2022/06/20 16:30:17;;;;;;;18.83;18.03;;;23.30;34.90;;;;;;5077200;28;20189;-80
2022/06/20 16:32:59;;;;;;;19.10;18.20;;;23.30;35.60;;;;;;5077236;28;20459;-78
2022/06/20 16:35:30;;;;;;;19.00;18.00;;;23.30;35.40;;;;;;5077088;28;20423;-78
2022/06/20 16:37:59;;;;;;;20.07;19.07;;;23.30;34.60;;;;;;5076584;28;20413;-76
2022/06/20 16:40:32;;;;;;;19.27;18.30;;;23.40;34.50;;;;;;5077076;28;20428;-79
2022/06/20 16:43:21;;;;;;;19.13;18.27;;;23.30;34.80;;;;;;5077128;28;20424;-79
2022/06/20 16:46:01;;;;;;;20.33;19.33;;;23.20;35.00;;;;;;5077164;28;20440;-77
2022/06/20 16:48:54;;;;;;;20.20;19.30;;;23.20;34.30;;;;;;5076982;28;20505;-78
2022/06/20 16:51:40;;;;;;;20.47;19.57;;;23.10;34.90;;;;;;5077600;28;20499;-76
2022/06/20 16:54:29;;;;;;;21.30;20.20;;;23.10;34.10;;;;;;5095589;28;20454;-78
2022/06/20 16:57:02;;;;;;;19.80;18.80;;;23.10;34.00;;;;;;5094731;28;20424;-77
2022/06/20 16:59:43;;;;;;;20.00;19.10;;;23.10;34.80;;;;;;5076653;28;20481;-77
2022/06/20 17:02:15;;;;;;;19.23;18.53;;;23.10;33.50;;;;;;5076729;28;20912;-75
2022/06/20 17:05:06;;;;;;;18.40;17.70;;;23.20;32.70;;;;;;5076676;28;20417;-76
2022/06/20 17:07:37;;;;;;;18.80;18.00;;;23.10;32.60;;;;;;5075654;28;20423;-75
2022/06/20 17:16:47;;;;;;;20.20;19.27;;;23.00;32.50;;;;;;5094441;28;20427;-76
2022/06/20 17:19:22;;;;;;;19.13;18.40;;;23.00;32.50;;;;;;5077101;28;20409;-76
2022/06/20 17:21:57;;;;;;;18.37;17.37;;;23.00;32.50;;;;;;5076510;28;20197;-76
2022/06/20 17:24:22;;;;;;;17.93;17.23;;;22.90;31.20;;;;;;5076330;28;20408;-75
2022/06/20 17:26:57;;;;;;;18.87;18.07;;;22.80;32.30;;;;;;5094123;28;20404;-75
2022/06/20 17:29:41;;;;;;;19.40;18.60;;;22.80;31.80;;;;;;5076235;28;20170;-75
2022/06/20 17:32:10;;;;;;;18.40;17.50;;;22.70;32.10;;;;;;5075963;28;20456;-76
2022/06/20 17:35:32;;;;;;;19.70;18.70;;;22.60;32.50;;;;;;5076140;28;20413;-76
2022/06/20 17:38:04;;;;;;;19.63;18.83;;;22.50;32.50;;;;;;5052452;28;20419;-76
2022/06/20 17:40:53;;;;;;;20.43;19.57;;;22.60;32.10;;;;;;5076386;28;20524;-78
2022/06/20 17:43:59;;;;;;;19.57;18.77;;;22.40;32.50;;;;;;5075964;28;20752;-76
2022/06/20 17:50:15;;;;;;;20.17;19.33;;;22.30;33.80;;;;;;5094483;28;20418;-76
2022/06/20 17:53:05;;;;;;;20.33;19.40;;;22.30;33.20;;;;;;5075437;28;20479;-76
2022/06/20 17:56:13;;;;;;;19.20;18.50;;;22.30;32.90;;;;;;5075616;28;20409;-75
2022/06/20 17:59:20;;;;;;;19.30;18.50;;;22.30;32.00;;;;;;5020492;28;20436;-79
2022/06/20 18:02:01;;;;;;;18.90;18.10;;;22.20;33.20;;;;;;5057303;28;20413;-76
2022/06/20 18:04:37;;;;;;;17.83;17.00;;;22.20;33.50;;;;;;5066416;28;20410;-80
2022/06/20 18:07:18;;;;;;;18.67;17.90;;;22.10;32.80;;;;;;5056149;28;20467;-83
2022/06/20 18:09:51;;;;;;;19.77;18.97;;;22.10;32.80;;;;;;5056470;28;20414;-75
2022/06/20 18:29:23;;;;;;;19.80;19.00;;;21.80;33.00;;;;;;5073810;28;20412;-81
2022/06/20 18:36:42;;;;;;;18.77;18.07;;;21.70;33.80;;;;;;5026181;28;20293;-79
2022/06/20 18:39:25;;;;;;;19.30;18.40;;;21.60;33.90;;;;;;5024855;28;20485;-79
2022/06/20 18:56:33;;;;;;;19.20;18.50;;;21.30;35.10;;;;;;5047187;28;20404;-78
2022/06/20 19:06:14;;;;;;;18.43;17.73;;;21.30;33.60;;;;;;4893865;29;20475;-77
2022/06/20 19:09:07;;;;;;;17.20;16.60;;;21.20;34.30;;;;;;4869600;29;20435;-78
2022/06/20 19:12:12;;;;;;;18.43;17.63;;;21.10;34.60;;;;;;4876097;29;20542;-78
2022/06/20 19:22:09;;;;;;;17.70;17.00;;;21.10;34.70;;;;;;4840377;29;20410;-78
2022/06/20 19:28:06;;;;;;;18.10;17.47;;;21.00;35.40;;;;;;4812621;29;20850;-78
2022/06/20 19:41:08;;;;;;;18.80;17.90;;;20.70;34.70;;;;;;4960078;28;21044;-77
2022/06/20 19:43:38;;;;;;;18.60;17.90;;;20.60;34.40;;;;;;4917256;29;21042;-75
2022/06/20 19:46:10;;;;;;;19.03;18.33;;;20.60;34.70;;;;;;4977461;28;20434;-77
2022/06/20 19:48:44;;;;;;;19.00;18.30;;;20.50;35.10;;;;;;5016807;28;20793;-77
2022/06/20 19:54:51;;;;;;;17.53;16.70;;;20.60;35.10;;;;;;5015881;28;20406;-78
2022/06/20 19:58:11;;;;;;;17.20;16.50;;;20.60;34.40;;;;;;5015874;28;20474;-77
2022/06/20 20:00:45;;;;;;;19.57;18.53;;;20.50;34.50;;;;;;5014675;28;20527;-79
2022/06/20 20:03:28;;;;;;;17.73;17.13;;;20.50;34.80;;;;;;5014766;28;20908;-78
2022/06/20 20:06:05;;;;;;;17.50;16.90;;;20.60;34.20;;;;;;4998229;28;20465;-78
2022/06/20 20:08:37;;;;;;;18.50;17.70;;;20.60;34.00;;;;;;4998298;28;20582;-78
2022/06/20 20:11:11;;;;;;;17.70;17.00;;;20.50;33.90;;;;;;5014283;28;20470;-78
2022/06/20 20:13:45;;;;;;;16.70;16.10;;;20.40;33.80;;;;;;4998164;28;20531;-77
2022/06/20 20:16:15;;;;;;;17.83;16.87;;;20.40;34.30;;;;;;4998188;28;20424;-78
2022/06/20 20:19:08;;;;;;;18.00;17.30;;;20.40;34.30;;;;;;4998541;28;20447;-77
2022/06/20 20:21:47;;;;;;;17.97;17.23;;;20.30;33.50;;;;;;5015283;28;20408;-76
2022/06/20 20:24:28;;;;;;;18.20;17.40;;;20.30;33.80;;;;;;4998555;28;20916;-77
2022/06/20 20:26:53;;;;;;;18.57;17.60;;;20.30;33.30;;;;;;5014735;28;20428;-77
2022/06/20 20:40:19;;;;;;;16.80;16.20;;;20.10;34.60;;;;;;4973845;28;20495;-78
2022/06/20 21:07:43;;;;;;;17.50;16.80;;;19.50;35.90;;;;;;5047009;28;20477;-79
2022/06/20 21:14:09;;;;;;;17.20;16.60;;;19.30;33.70;;;;;;4958990;28;20855;-77
2022/06/20 21:20:11;;;;;;;17.50;16.83;;;19.20;34.40;;;;;;4973411;28;20438;-78
2022/06/20 21:23:10;;;;;;;17.63;17.03;;;19.10;33.60;;;;;;4956947;28;20585;-78
2022/06/20 21:26:31;;;;;;;16.80;16.20;;;19.00;33.90;;;;;;4957464;28;20434;-79
2022/06/20 21:29:33;;;;;;;17.50;16.90;;;18.90;34.30;;;;;;4915921;29;20418;-77
2022/06/20 21:32:31;;;;;;;17.60;16.93;;;18.90;34.10;;;;;;4900558;29;20473;-79
2022/06/20 21:38:38;;;;;;;16.80;16.30;;;18.90;34.20;;;;;;4896159;29;20913;-79